Time;durP1;ratioP1;P1;durP2;ratioP2;P2;SDS_P1;SDS_P2;PMS_P1;PMS_P2;Temp;Humidity;BMP_temperature;BMP_pressure;BME280_temperature;BME280_humidity;BME280_pressure;Samples;Min_cycle;Max_cycle;Signal;HPM_P1;HPM_P2
2023/08/03 00:01:46;;;;;;;12.77;2.80;;;;;;;;;;5112805;28;20280;-86
2023/08/03 00:04:13;;;;;;;13.35;3.35;;;;;;;;;;5112285;28;20260;-85
2023/08/03 00:06:41;;;;;;;12.95;3.25;;;;;;;;;;5112332;28;20281;-86
2023/08/03 00:09:08;;;;;;;11.05;2.92;;;;;;;;;;5115668;28;20226;-85
2023/08/03 00:11:37;;;;;;;13.15;3.63;;;;;;;;;;5115725;28;20226;-84
2023/08/03 00:14:04;;;;;;;18.73;3.55;;;;;;;;;;5115977;28;20646;-84
2023/08/03 00:16:31;;;;;;;12.73;3.40;;;;;;;;;;5124700;27;20201;-85
2023/08/03 00:18:58;;;;;;;17.90;3.67;;;;;;;;;;5136252;27;20280;-85
2023/08/03 00:21:26;;;;;;;14.73;3.50;;;;;;;;;;5136345;27;20280;-84
2023/08/03 00:23:53;;;;;;;16.00;3.35;;;;;;;;;;5135901;27;20307;-85
2023/08/03 00:26:20;;;;;;;15.32;2.90;;;;;;;;;;5136347;27;20199;-86
2023/08/03 00:28:49;;;;;;;13.68;2.92;;;;;;;;;;5136292;27;20231;-86
2023/08/03 00:31:16;;;;;;;18.42;3.08;;;;;;;;;;5136532;27;20240;-85
2023/08/03 00:33:43;;;;;;;12.55;2.83;;;;;;;;;;5136133;27;20197;-85
2023/08/03 00:36:10;;;;;;;14.00;3.28;;;;;;;;;;5136191;27;20220;-85
2023/08/03 00:38:38;;;;;;;11.95;2.90;;;;;;;;;;5135800;27;20197;-85
2023/08/03 00:41:05;;;;;;;16.03;3.27;;;;;;;;;;5136040;27;20291;-85
2023/08/03 00:43:32;;;;;;;14.40;3.00;;;;;;;;;;5135778;27;20227;-85
2023/08/03 00:46:01;;;;;;;13.95;3.83;;;;;;;;;;5136275;27;20276;-85
2023/08/03 00:48:28;;;;;;;15.90;3.55;;;;;;;;;;5135800;27;20193;-85
2023/08/03 00:50:55;;;;;;;12.85;3.40;;;;;;;;;;5136000;27;20229;-85
2023/08/03 00:53:23;;;;;;;14.80;2.92;;;;;;;;;;5135332;27;20666;-85
2023/08/03 00:55:50;;;;;;;14.80;3.15;;;;;;;;;;5135563;27;20284;-86
2023/08/03 00:58:17;;;;;;;12.13;2.78;;;;;;;;;;5135421;27;20228;-84
2023/08/03 01:00:45;;;;;;;16.10;2.85;;;;;;;;;;5135139;27;20264;-85
2023/08/03 01:03:13;;;;;;;11.52;2.47;;;;;;;;;;5135702;27;20247;-85
2023/08/03 01:05:41;;;;;;;13.20;3.10;;;;;;;;;;5134708;27;20256;-86
2023/08/03 01:08:08;;;;;;;16.05;3.00;;;;;;;;;;5135253;27;20250;-85
2023/08/03 01:10:35;;;;;;;18.83;3.90;;;;;;;;;;5135144;27;20284;-85
2023/08/03 01:13:03;;;;;;;11.75;2.70;;;;;;;;;;5135247;27;20275;-85
2023/08/03 01:15:30;;;;;;;14.13;2.97;;;;;;;;;;5127113;27;20296;-85
2023/08/03 01:17:58;;;;;;;14.40;3.13;;;;;;;;;;5135044;27;20296;-84
2023/08/03 01:20:27;;;;;;;7.63;2.78;;;;;;;;;;5134386;27;20197;-85
2023/08/03 01:22:55;;;;;;;12.40;3.10;;;;;;;;;;5135133;27;20224;-84
2023/08/03 01:25:23;;;;;;;11.93;2.95;;;;;;;;;;5134623;27;20312;-85
2023/08/03 01:27:50;;;;;;;12.00;2.95;;;;;;;;;;5134625;27;20280;-86
2023/08/03 01:30:17;;;;;;;13.13;3.13;;;;;;;;;;5134542;27;20280;-85
2023/08/03 01:32:44;;;;;;;13.95;3.53;;;;;;;;;;5134591;27;20197;-85
2023/08/03 01:35:12;;;;;;;10.40;3.20;;;;;;;;;;5134507;27;20216;-85
2023/08/03 01:37:39;;;;;;;14.20;3.08;;;;;;;;;;5134658;27;20241;-86
2023/08/03 01:40:10;;;;;;;11.90;3.20;;;;;;;;;;5134489;27;20216;-85
2023/08/03 01:42:37;;;;;;;15.20;3.33;;;;;;;;;;5134379;27;20190;-86
2023/08/03 01:45:08;;;;;;;13.25;2.95;;;;;;;;;;5134663;27;20270;-86
2023/08/03 01:47:35;;;;;;;12.65;2.42;;;;;;;;;;5134367;27;20225;-86
2023/08/03 01:50:02;;;;;;;12.77;2.60;;;;;;;;;;5134119;27;20220;-85
2023/08/03 01:52:30;;;;;;;14.38;2.50;;;;;;;;;;5134189;27;20296;-86
2023/08/03 01:54:57;;;;;;;12.47;3.20;;;;;;;;;;5134547;27;20196;-86
2023/08/03 01:57:25;;;;;;;11.43;2.60;;;;;;;;;;5134066;27;20193;-86
2023/08/03 01:59:53;;;;;;;9.33;2.10;;;;;;;;;;5134139;27;20268;-85
2023/08/03 02:02:20;;;;;;;11.50;2.43;;;;;;;;;;5134223;27;20220;-85
2023/08/03 02:04:47;;;;;;;10.68;3.40;;;;;;;;;;5133381;27;20316;-85
2023/08/03 02:07:17;;;;;;;15.43;3.23;;;;;;;;;;5133906;27;20288;-85
2023/08/03 02:09:44;;;;;;;12.02;2.92;;;;;;;;;;5133805;27;20292;-85
2023/08/03 02:12:11;;;;;;;12.55;3.08;;;;;;;;;;5133723;27;20193;-85
2023/08/03 02:14:40;;;;;;;14.27;3.00;;;;;;;;;;5133433;27;20287;-85
2023/08/03 02:17:07;;;;;;;13.10;2.70;;;;;;;;;;5134030;27;20217;-85
2023/08/03 02:19:37;;;;;;;12.77;3.23;;;;;;;;;;5133478;27;20232;-85
2023/08/03 02:22:04;;;;;;;14.18;2.95;;;;;;;;;;5133682;27;20665;-85
2023/08/03 02:24:31;;;;;;;12.52;3.30;;;;;;;;;;5133508;27;20229;-85
2023/08/03 02:26:58;;;;;;;13.20;3.77;;;;;;;;;;5133542;27;20232;-85
2023/08/03 02:29:25;;;;;;;13.27;3.73;;;;;;;;;;5133388;27;20229;-85
2023/08/03 02:31:54;;;;;;;10.80;3.00;;;;;;;;;;5133278;27;20228;-86
2023/08/03 02:34:21;;;;;;;15.00;3.33;;;;;;;;;;5133448;27;20195;-85
2023/08/03 02:36:48;;;;;;;12.97;3.37;;;;;;;;;;5133697;27;20230;-84
2023/08/03 02:39:16;;;;;;;15.07;3.73;;;;;;;;;;5133304;27;20229;-86
2023/08/03 02:41:43;;;;;;;16.67;3.73;;;;;;;;;;5133509;27;20220;-85
2023/08/03 02:44:10;;;;;;;12.77;3.50;;;;;;;;;;5133208;27;20201;-85
2023/08/03 02:46:37;;;;;;;16.10;3.73;;;;;;;;;;5133442;27;20197;-85
2023/08/03 02:49:06;;;;;;;16.47;3.47;;;;;;;;;;5132980;27;20288;-86
2023/08/03 02:51:33;;;;;;;14.27;3.60;;;;;;;;;;5133332;27;20201;-85
2023/08/03 02:54:00;;;;;;;12.68;3.50;;;;;;;;;;5133567;27;20284;-86
2023/08/03 02:56:27;;;;;;;15.30;3.40;;;;;;;;;;5133319;27;20195;-86
2023/08/03 02:58:55;;;;;;;14.97;3.27;;;;;;;;;;5133162;27;20235;-85
2023/08/03 03:01:22;;;;;;;12.50;2.90;;;;;;;;;;5132970;27;20641;-85
2023/08/03 03:03:49;;;;;;;15.60;3.77;;;;;;;;;;5133254;28;20216;-84
2023/08/03 03:06:18;;;;;;;12.40;3.47;;;;;;;;;;5133407;28;20339;-86
2023/08/03 03:08:45;;;;;;;15.17;3.20;;;;;;;;;;5133117;27;20276;-85
2023/08/03 03:11:12;;;;;;;12.10;3.30;;;;;;;;;;5133419;27;20211;-86
2023/08/03 03:13:40;;;;;;;16.73;3.07;;;;;;;;;;5133119;27;20273;-84
2023/08/03 03:16:07;;;;;;;15.65;3.75;;;;;;;;;;5132657;27;20201;-82
2023/08/03 03:18:34;;;;;;;12.57;3.47;;;;;;;;;;5133301;28;20283;-86
2023/08/03 03:21:01;;;;;;;13.33;2.93;;;;;;;;;;5132926;28;20231;-86
2023/08/03 03:23:30;;;;;;;14.70;3.20;;;;;;;;;;5132985;27;20197;-86
2023/08/03 03:25:57;;;;;;;12.27;3.07;;;;;;;;;;5132917;28;20220;-85
2023/08/03 03:28:25;;;;;;;14.33;3.70;;;;;;;;;;5132768;27;20284;-86
2023/08/03 03:30:52;;;;;;;14.03;3.63;;;;;;;;;;5132924;28;20236;-86
2023/08/03 03:33:19;;;;;;;11.10;2.90;;;;;;;;;;5133196;28;20232;-86
2023/08/03 03:35:46;;;;;;;10.47;2.70;;;;;;;;;;5133043;28;20284;-85
2023/08/03 03:38:13;;;;;;;15.73;3.37;;;;;;;;;;5132890;27;20205;-86
2023/08/03 03:40:42;;;;;;;14.00;3.03;;;;;;;;;;5132937;28;20287;-84
2023/08/03 03:43:09;;;;;;;17.17;3.90;;;;;;;;;;5135338;27;20193;-86
2023/08/03 03:45:36;;;;;;;14.10;2.63;;;;;;;;;;5136378;27;20244;-85
2023/08/03 03:48:04;;;;;;;12.33;2.80;;;;;;;;;;5136634;27;20279;-85
2023/08/03 03:50:31;;;;;;;13.87;2.77;;;;;;;;;;5136679;27;20288;-85
2023/08/03 03:52:58;;;;;;;14.67;3.10;;;;;;;;;;5136601;27;20193;-85
2023/08/03 03:55:26;;;;;;;12.70;2.90;;;;;;;;;;5136533;27;20210;-86
2023/08/03 03:57:55;;;;;;;12.07;3.13;;;;;;;;;;5136211;27;20288;-85
2023/08/03 04:00:22;;;;;;;19.10;3.63;;;;;;;;;;5136015;27;20303;-85
2023/08/03 04:02:50;;;;;;;13.43;2.93;;;;;;;;;;5136318;27;20197;-85
2023/08/03 04:05:17;;;;;;;11.40;3.10;;;;;;;;;;5136259;27;20228;-85
2023/08/03 04:07:44;;;;;;;16.00;3.10;;;;;;;;;;5136640;27;20283;-84
2023/08/03 04:10:12;;;;;;;11.80;2.97;;;;;;;;;;5136683;27;20217;-86
2023/08/03 04:12:39;;;;;;;12.30;2.83;;;;;;;;;;5136246;27;20193;-86
2023/08/03 04:15:08;;;;;;;9.13;2.97;;;;;;;;;;5136175;27;20196;-86
2023/08/03 04:17:37;;;;;;;12.40;3.70;;;;;;;;;;5136348;27;20279;-86
2023/08/03 04:20:05;;;;;;;10.27;2.70;;;;;;;;;;5134813;27;20229;-84
2023/08/03 04:22:32;;;;;;;15.40;3.20;;;;;;;;;;5136266;27;20790;-85
2023/08/03 04:24:59;;;;;;;10.90;2.97;;;;;;;;;;5136194;27;20263;-85
2023/08/03 04:27:26;;;;;;;12.00;2.60;;;;;;;;;;5135898;27;20288;-86
2023/08/03 04:29:53;;;;;;;13.20;3.22;;;;;;;;;;5135733;27;20240;-86
2023/08/03 04:32:22;;;;;;;10.43;2.53;;;;;;;;;;5135277;27;20189;-85
2023/08/03 04:34:49;;;;;;;8.87;2.73;;;;;;;;;;5135614;27;20197;-86
2023/08/03 04:37:17;;;;;;;17.87;3.60;;;;;;;;;;5135992;27;20287;-86
2023/08/03 04:39:44;;;;;;;10.60;3.00;;;;;;;;;;5134919;27;20199;-87
2023/08/03 04:42:11;;;;;;;11.83;2.53;;;;;;;;;;5135822;27;20228;-86
2023/08/03 04:44:39;;;;;;;9.60;3.07;;;;;;;;;;5135212;27;20224;-86
2023/08/03 04:47:06;;;;;;;9.20;2.40;;;;;;;;;;5135597;27;20603;-85
2023/08/03 04:49:35;;;;;;;10.80;2.60;;;;;;;;;;5136054;27;20264;-86
2023/08/03 04:52:02;;;;;;;10.30;2.50;;;;;;;;;;5135824;27;20270;-86
2023/08/03 04:54:29;;;;;;;12.13;2.97;;;;;;;;;;5135613;27;20197;-86
2023/08/03 04:56:56;;;;;;;10.60;2.50;;;;;;;;;;5135629;27;20224;-86
2023/08/03 04:59:23;;;;;;;5.80;2.20;;;;;;;;;;5135381;27;20662;-86
2023/08/03 05:01:50;;;;;;;9.10;2.67;;;;;;;;;;5135786;27;20611;-86
2023/08/03 05:04:18;;;;;;;9.93;2.37;;;;;;;;;;5135649;27;20640;-86
2023/08/03 05:06:46;;;;;;;9.18;2.38;;;;;;;;;;5135664;27;20278;-85
2023/08/03 05:09:13;;;;;;;12.13;2.30;;;;;;;;;;5135754;27;20221;-87
2023/08/03 05:11:41;;;;;;;13.35;2.83;;;;;;;;;;5135373;27;20224;-87
2023/08/03 05:14:08;;;;;;;9.35;2.90;;;;;;;;;;5135063;27;20280;-86
2023/08/03 05:16:35;;;;;;;13.60;2.60;;;;;;;;;;5135098;27;20740;-85
2023/08/03 05:19:02;;;;;;;9.40;2.30;;;;;;;;;;5135072;27;20836;-87
2023/08/03 05:21:29;;;;;;;9.48;2.47;;;;;;;;;;5135369;27;20300;-86
2023/08/03 05:23:58;;;;;;;7.63;2.88;;;;;;;;;;5135486;27;20234;-85
2023/08/03 05:26:26;;;;;;;10.70;2.75;;;;;;;;;;5134892;27;20720;-86
2023/08/03 05:28:53;;;;;;;8.83;2.60;;;;;;;;;;5134841;27;20781;-87
2023/08/03 05:31:21;;;;;;;10.83;2.50;;;;;;;;;;5135534;27;20189;-86
2023/08/03 05:33:48;;;;;;;9.80;2.90;;;;;;;;;;5134761;27;20193;-87
2023/08/03 05:36:15;;;;;;;11.07;2.30;;;;;;;;;;5135132;27;20228;-86
2023/08/03 05:38:43;;;;;;;11.27;2.78;;;;;;;;;;5135236;27;20276;-84
2023/08/03 05:41:16;;;;;;;12.53;2.70;;;;;;;;;;5134320;27;20232;-86
2023/08/03 05:43:43;;;;;;;9.98;2.45;;;;;;;;;;5134709;27;20193;-85
2023/08/03 05:46:13;;;;;;;11.23;2.50;;;;;;;;;;5134295;27;20324;-85
2023/08/03 05:48:40;;;;;;;9.27;2.40;;;;;;;;;;5134433;27;20186;-86
2023/08/03 05:51:09;;;;;;;9.52;2.30;;;;;;;;;;5134684;27;20280;-86
2023/08/03 05:53:36;;;;;;;7.78;2.30;;;;;;;;;;5134468;27;20581;-86
2023/08/03 05:56:04;;;;;;;8.23;2.40;;;;;;;;;;5134484;27;20311;-86
2023/08/03 05:58:37;;;;;;;7.45;2.25;;;;;;;;;;5134609;27;20246;-86
2023/08/03 06:01:04;;;;;;;8.45;2.05;;;;;;;;;;5134349;27;20231;-86
2023/08/03 06:03:33;;;;;;;9.27;2.05;;;;;;;;;;5134706;27;20291;-85
2023/08/03 06:06:01;;;;;;;11.25;2.40;;;;;;;;;;5133437;27;20309;-85
2023/08/03 06:08:28;;;;;;;9.18;2.25;;;;;;;;;;5134510;27;20271;-87
2023/08/03 06:10:56;;;;;;;9.48;2.13;;;;;;;;;;5134155;27;20276;-86
2023/08/03 06:13:27;;;;;;;9.98;2.10;;;;;;;;;;5134532;27;20280;-85
2023/08/03 06:15:56;;;;;;;9.68;2.28;;;;;;;;;;5134503;27;20216;-86
2023/08/03 06:18:23;;;;;;;7.93;2.13;;;;;;;;;;5134176;27;20233;-86
2023/08/03 06:20:51;;;;;;;9.95;2.00;;;;;;;;;;5134156;27;20258;-86
2023/08/03 06:23:19;;;;;;;9.60;2.50;;;;;;;;;;5134396;27;20235;-86
2023/08/03 06:25:47;;;;;;;12.20;2.55;;;;;;;;;;5133928;27;20228;-86
2023/08/03 06:28:15;;;;;;;9.50;2.05;;;;;;;;;;5134139;27;20227;-86
2023/08/03 06:30:43;;;;;;;11.70;2.80;;;;;;;;;;5133927;27;20217;-87
2023/08/03 06:33:13;;;;;;;12.40;2.78;;;;;;;;;;5133961;27;20681;-86
2023/08/03 06:35:41;;;;;;;9.48;2.75;;;;;;;;;;5134157;27;20295;-86
2023/08/03 06:38:10;;;;;;;10.30;2.40;;;;;;;;;;5133848;27;20220;-86
2023/08/03 06:40:39;;;;;;;8.57;2.30;;;;;;;;;;5133619;27;20242;-87
2023/08/03 06:43:07;;;;;;;10.77;2.85;;;;;;;;;;5134395;27;20245;-86
2023/08/03 06:45:35;;;;;;;14.20;3.10;;;;;;;;;;5134065;27;20252;-87
2023/08/03 06:48:02;;;;;;;10.57;2.67;;;;;;;;;;5133823;27;20204;-86
2023/08/03 06:50:32;;;;;;;15.00;2.70;;;;;;;;;;5133785;27;20285;-86
2023/08/03 06:52:59;;;;;;;13.25;2.88;;;;;;;;;;5134104;27;20235;-86
2023/08/03 06:55:27;;;;;;;12.95;3.00;;;;;;;;;;5133748;27;20632;-86
2023/08/03 06:57:54;;;;;;;10.63;2.72;;;;;;;;;;5133711;27;20243;-85
2023/08/03 07:00:23;;;;;;;15.20;3.03;;;;;;;;;;5133259;27;20258;-85
2023/08/03 07:02:50;;;;;;;14.50;3.28;;;;;;;;;;5133598;27;20226;-86
2023/08/03 07:05:17;;;;;;;14.70;3.33;;;;;;;;;;5133397;27;20246;-86
2023/08/03 07:07:46;;;;;;;10.20;2.70;;;;;;;;;;5133745;27;20280;-86
2023/08/03 07:10:13;;;;;;;10.95;2.67;;;;;;;;;;5133623;27;20197;-85
2023/08/03 07:12:42;;;;;;;16.75;3.83;;;;;;;;;;5133621;27;20225;-85
2023/08/03 07:15:10;;;;;;;11.30;3.13;;;;;;;;;;5133451;27;20197;-87
2023/08/03 07:17:37;;;;;;;12.52;3.00;;;;;;;;;;5136889;27;20239;-87
2023/08/03 07:20:08;;;;;;;15.70;3.00;;;;;;;;;;5137493;27;20197;-86
2023/08/03 07:22:36;;;;;;;11.32;2.88;;;;;;;;;;5138157;27;20225;-87
2023/08/03 07:25:04;;;;;;;12.75;3.00;;;;;;;;;;5137809;27;20204;-87
2023/08/03 07:27:32;;;;;;;10.75;2.80;;;;;;;;;;5137581;27;20256;-86
2023/08/03 07:29:59;;;;;;;12.02;2.70;;;;;;;;;;5137538;27;20201;-88
2023/08/03 07:32:26;;;;;;;11.52;2.75;;;;;;;;;;5137592;27;20673;-87
2023/08/03 07:34:53;;;;;;;12.63;2.92;;;;;;;;;;5138027;27;20564;-86
2023/08/03 07:37:21;;;;;;;13.00;2.90;;;;;;;;;;5137199;27;20211;-85
2023/08/03 07:39:48;;;;;;;11.27;3.30;;;;;;;;;;5137207;27;20196;-85
2023/08/03 07:42:17;;;;;;;17.27;3.55;;;;;;;;;;5137244;27;20337;-86
2023/08/03 07:44:44;;;;;;;12.77;2.92;;;;;;;;;;5136993;27;20228;-85
2023/08/03 07:47:11;;;;;;;11.27;2.92;;;;;;;;;;5137375;27;20767;-86
2023/08/03 07:49:37;;;;;;;10.68;3.05;;;;;;;;;;5136550;27;20650;-86
2023/08/03 07:52:05;;;;;;;9.63;2.75;;;;;;;;;;5136756;27;20229;-86
2023/08/03 07:54:32;;;;;;;14.73;3.45;;;;;;;;;;5136761;27;20227;-86
2023/08/03 07:56:59;;;;;;;11.23;2.65;;;;;;;;;;5136863;27;20193;-85
2023/08/03 07:59:28;;;;;;;10.80;2.70;;;;;;;;;;5136582;27;20232;-86
2023/08/03 08:01:55;;;;;;;12.50;2.95;;;;;;;;;;5136857;27;20229;-85
2023/08/03 08:04:22;;;;;;;9.40;2.88;;;;;;;;;;5137286;27;20232;-85
2023/08/03 08:06:50;;;;;;;13.02;3.40;;;;;;;;;;5136854;27;20251;-85
2023/08/03 08:09:17;;;;;;;16.40;3.30;;;;;;;;;;5136751;27;20220;-85
2023/08/03 08:11:44;;;;;;;12.27;2.67;;;;;;;;;;5135577;27;20197;-85
2023/08/03 08:14:12;;;;;;;9.98;2.83;;;;;;;;;;5136881;27;20693;-86
2023/08/03 08:16:40;;;;;;;13.07;2.85;;;;;;;;;;5126883;27;20646;-86
2023/08/03 08:19:07;;;;;;;12.23;3.03;;;;;;;;;;5115739;28;20292;-85
2023/08/03 08:21:35;;;;;;;10.20;3.10;;;;;;;;;;5115233;28;20186;-86
2023/08/03 08:24:02;;;;;;;11.63;3.00;;;;;;;;;;5115630;28;20710;-85
2023/08/03 08:26:31;;;;;;;8.13;3.00;;;;;;;;;;5115896;28;20315;-85
2023/08/03 08:28:58;;;;;;;8.88;2.63;;;;;;;;;;5114909;28;20247;-85
2023/08/03 08:31:26;;;;;;;9.23;3.15;;;;;;;;;;5115913;28;20204;-85
2023/08/03 08:33:54;;;;;;;8.95;2.55;;;;;;;;;;5115186;28;20236;-85
2023/08/03 08:36:22;;;;;;;9.90;2.80;;;;;;;;;;5115647;28;20280;-84
2023/08/03 08:38:49;;;;;;;8.98;2.55;;;;;;;;;;5115538;28;20225;-84
2023/08/03 08:41:16;;;;;;;7.18;2.25;;;;;;;;;;5115442;28;20285;-84
2023/08/03 08:43:43;;;;;;;5.10;2.17;;;;;;;;;;5116206;28;20280;-85
2023/08/03 08:46:11;;;;;;;6.47;2.22;;;;;;;;;;5116077;28;20781;-85
2023/08/03 08:48:38;;;;;;;6.43;2.17;;;;;;;;;;5115838;28;20240;-85
2023/08/03 08:51:07;;;;;;;5.90;2.50;;;;;;;;;;5115620;28;20284;-85
2023/08/03 08:53:35;;;;;;;8.23;2.30;;;;;;;;;;5115257;28;20300;-85
2023/08/03 08:56:02;;;;;;;8.13;2.10;;;;;;;;;;5115528;28;20198;-85
2023/08/03 08:58:29;;;;;;;5.43;1.90;;;;;;;;;;5114984;28;20588;-85
2023/08/03 09:01:04;;;;;;;6.57;2.17;;;;;;;;;;5114998;28;20601;-85
2023/08/03 09:03:46;;;;;;;6.10;2.35;;;;;;;;;;5115249;28;20250;-85
2023/08/03 09:06:14;;;;;;;9.32;2.20;;;;;;;;;;5114521;28;20593;-85
2023/08/03 09:08:52;;;;;;;7.10;2.17;;;;;;;;;;5114585;28;20288;-86
2023/08/03 09:11:20;;;;;;;5.00;2.08;;;;;;;;;;5114507;28;20235;-84
2023/08/03 09:13:48;;;;;;;5.82;2.15;;;;;;;;;;5114959;28;20633;-85
2023/08/03 09:16:26;;;;;;;5.15;2.20;;;;;;;;;;5121057;27;20233;-86
2023/08/03 09:18:53;;;;;;;5.63;2.22;;;;;;;;;;5134642;27;20664;-85
2023/08/03 09:21:22;;;;;;;2.72;2.10;;;;;;;;;;5135094;27;20295;-87
2023/08/03 09:23:49;;;;;;;5.32;2.20;;;;;;;;;;5135228;27;20234;-87
2023/08/03 09:26:23;;;;;;;5.40;2.40;;;;;;;;;;5135058;27;20621;-86
2023/08/03 09:28:50;;;;;;;6.30;2.65;;;;;;;;;;5134369;27;20195;-85
2023/08/03 09:31:22;;;;;;;3.58;2.38;;;;;;;;;;5134823;27;20197;-84
2023/08/03 09:33:56;;;;;;;3.58;2.13;;;;;;;;;;5132900;27;20193;-85
2023/08/03 09:36:24;;;;;;;4.78;2.33;;;;;;;;;;5134690;27;20224;-84
2023/08/03 09:38:52;;;;;;;5.05;2.28;;;;;;;;;;5134317;27;20322;-85
2023/08/03 09:41:34;;;;;;;5.07;2.60;;;;;;;;;;5133095;27;20193;-84
2023/08/03 09:44:03;;;;;;;5.20;2.60;;;;;;;;;;5134143;27;20201;-83
2023/08/03 09:46:31;;;;;;;6.15;2.60;;;;;;;;;;5134551;27;20228;-83
2023/08/03 09:48:58;;;;;;;6.05;2.55;;;;;;;;;;5134105;27;20213;-84
2023/08/03 09:51:29;;;;;;;7.30;2.88;;;;;;;;;;5134297;27;20571;-84
2023/08/03 09:54:00;;;;;;;5.68;2.55;;;;;;;;;;5134234;27;20276;-85
2023/08/03 09:56:31;;;;;;;5.93;2.80;;;;;;;;;;5134339;27;20186;-85
2023/08/03 09:59:03;;;;;;;6.97;3.00;;;;;;;;;;5134190;27;20200;-85
2023/08/03 10:01:33;;;;;;;5.75;3.05;;;;;;;;;;5134111;27;20193;-84
2023/08/03 10:04:04;;;;;;;5.40;2.92;;;;;;;;;;5133836;27;20281;-85
2023/08/03 10:06:34;;;;;;;4.72;2.80;;;;;;;;;;5134029;27;20224;-85
2023/08/03 10:09:04;;;;;;;5.03;2.67;;;;;;;;;;5134053;27;20200;-85
2023/08/03 10:11:33;;;;;;;6.55;3.03;;;;;;;;;;5134046;27;20237;-85
2023/08/03 10:14:03;;;;;;;7.53;4.10;;;;;;;;;;5133919;27;20203;-85
2023/08/03 10:16:30;;;;;;;8.18;4.05;;;;;;;;;;5125737;27;20209;-86
2023/08/03 10:18:58;;;;;;;7.03;3.50;;;;;;;;;;5113281;28;21260;-85
2023/08/03 10:21:25;;;;;;;5.63;2.50;;;;;;;;;;5113633;28;20630;-86
2023/08/03 10:24:13;;;;;;;5.55;2.83;;;;;;;;;;5113639;28;20185;-86
2023/08/03 10:26:41;;;;;;;3.65;2.47;;;;;;;;;;5113668;28;20248;-86
2023/08/03 10:29:08;;;;;;;5.53;2.80;;;;;;;;;;5113763;28;20269;-86
2023/08/03 10:31:51;;;;;;;5.68;2.95;;;;;;;;;;5113286;28;20295;-86
2023/08/03 10:34:26;;;;;;;3.53;2.22;;;;;;;;;;5113555;28;20198;-86
2023/08/03 10:36:55;;;;;;;5.18;2.25;;;;;;;;;;5113642;28;20204;-86
2023/08/03 10:39:41;;;;;;;2.58;2.00;;;;;;;;;;5114035;28;20194;-86
2023/08/03 10:42:23;;;;;;;2.58;2.05;;;;;;;;;;5113706;28;20274;-86
2023/08/03 10:44:52;;;;;;;3.28;2.13;;;;;;;;;;5111031;28;20230;-86
2023/08/03 10:47:23;;;;;;;3.30;2.30;;;;;;;;;;5111664;28;20236;-87
2023/08/03 10:49:52;;;;;;;2.80;1.90;;;;;;;;;;5113558;28;20197;-85
2023/08/03 10:52:20;;;;;;;4.10;2.10;;;;;;;;;;5113128;28;20229;-86
2023/08/03 10:54:48;;;;;;;4.45;2.40;;;;;;;;;;5113257;28;20272;-86
2023/08/03 10:57:16;;;;;;;5.03;2.30;;;;;;;;;;5113574;28;20197;-87
2023/08/03 10:59:44;;;;;;;6.40;2.15;;;;;;;;;;5113556;28;20302;-87
2023/08/03 11:02:18;;;;;;;4.05;2.17;;;;;;;;;;5112877;28;20249;-87
2023/08/03 11:04:46;;;;;;;4.80;2.17;;;;;;;;;;5113243;28;20282;-87
2023/08/03 11:07:14;;;;;;;4.35;2.30;;;;;;;;;;5113217;28;20297;-87
2023/08/03 11:09:41;;;;;;;5.57;2.22;;;;;;;;;;5113253;28;20280;-86
2023/08/03 11:12:09;;;;;;;4.18;2.38;;;;;;;;;;5113315;28;20217;-87
2023/08/03 11:14:36;;;;;;;5.78;2.63;;;;;;;;;;5113584;28;20189;-87
2023/08/03 11:17:04;;;;;;;5.55;2.53;;;;;;;;;;5126558;27;20240;-87
2023/08/03 11:19:33;;;;;;;5.97;2.78;;;;;;;;;;5133953;28;20662;-87
2023/08/03 11:22:01;;;;;;;7.97;2.58;;;;;;;;;;5134174;28;20189;-88
2023/08/03 11:24:32;;;;;;;5.15;2.42;;;;;;;;;;5133759;28;20224;-87
2023/08/03 11:26:59;;;;;;;5.40;2.60;;;;;;;;;;5133857;28;20209;-86
2023/08/03 11:29:26;;;;;;;6.60;2.60;;;;;;;;;;5133421;28;20223;-86
2023/08/03 11:31:54;;;;;;;4.20;2.45;;;;;;;;;;5133637;27;20232;-86
2023/08/03 11:34:23;;;;;;;7.13;2.97;;;;;;;;;;5133439;28;20668;-85
2023/08/03 11:36:52;;;;;;;4.97;2.67;;;;;;;;;;5133492;28;20250;-86
2023/08/03 11:39:19;;;;;;;7.03;3.85;;;;;;;;;;5133462;28;20280;-85
2023/08/03 11:41:47;;;;;;;8.77;3.83;;;;;;;;;;5133304;28;20629;-86
2023/08/03 11:44:15;;;;;;;5.82;3.08;;;;;;;;;;5132069;27;20217;-86
2023/08/03 11:46:42;;;;;;;4.93;2.90;;;;;;;;;;5133110;28;20296;-87
2023/08/03 11:49:13;;;;;;;3.03;2.28;;;;;;;;;;5133761;28;20637;-86
2023/08/03 11:51:41;;;;;;;5.13;2.30;;;;;;;;;;5133403;28;20935;-87
2023/08/03 11:54:10;;;;;;;4.35;2.50;;;;;;;;;;5133344;28;20186;-86
2023/08/03 11:56:38;;;;;;;3.55;2.20;;;;;;;;;;5133248;27;20220;-87
2023/08/03 11:59:08;;;;;;;2.55;1.70;;;;;;;;;;5133089;28;20204;-87
2023/08/03 12:01:43;;;;;;;2.75;2.00;;;;;;;;;;5133686;28;20276;-87
2023/08/03 12:04:11;;;;;;;3.97;1.77;;;;;;;;;;5135397;27;20268;-87
2023/08/03 12:06:48;;;;;;;4.68;2.28;;;;;;;;;;5137147;27;20254;-87
2023/08/03 12:09:20;;;;;;;5.97;2.15;;;;;;;;;;5137548;27;20216;-87
2023/08/03 12:11:47;;;;;;;7.68;2.90;;;;;;;;;;5137007;27;20716;-86
2023/08/03 12:14:14;;;;;;;9.88;2.92;;;;;;;;;;5137113;27;20660;-86
2023/08/03 12:16:42;;;;;;;3.67;2.47;;;;;;;;;;5126626;27;20300;-85
2023/08/03 12:19:09;;;;;;;7.10;3.00;;;;;;;;;;5115894;28;20202;-85
2023/08/03 12:21:37;;;;;;;5.97;2.95;;;;;;;;;;5115920;28;20205;-86
2023/08/03 12:24:04;;;;;;;9.07;2.88;;;;;;;;;;5116075;28;20205;-86
2023/08/03 12:26:33;;;;;;;7.22;2.97;;;;;;;;;;5115872;28;20280;-86
2023/08/03 12:29:01;;;;;;;6.70;3.33;;;;;;;;;;5115832;28;20279;-87
2023/08/03 12:31:30;;;;;;;6.28;3.55;;;;;;;;;;5116146;28;20186;-86
2023/08/03 12:33:58;;;;;;;6.25;3.65;;;;;;;;;;5116298;28;20650;-87
2023/08/03 12:36:25;;;;;;;6.03;3.40;;;;;;;;;;5116389;28;20289;-86
2023/08/03 12:38:52;;;;;;;6.85;3.33;;;;;;;;;;5116571;28;20194;-88
2023/08/03 12:41:20;;;;;;;9.07;3.90;;;;;;;;;;5116237;28;20254;-87
2023/08/03 12:43:49;;;;;;;6.95;3.80;;;;;;;;;;5116045;28;20703;-88
2023/08/03 12:46:17;;;;;;;4.60;2.92;;;;;;;;;;5116299;28;20606;-86
2023/08/03 12:48:44;;;;;;;8.20;2.80;;;;;;;;;;5116154;28;20220;-87
2023/08/03 12:51:11;;;;;;;4.10;2.70;;;;;;;;;;5116409;28;20272;-87
2023/08/03 12:53:39;;;;;;;6.15;2.92;;;;;;;;;;5116203;28;20704;-87
2023/08/03 12:56:06;;;;;;;3.65;2.45;;;;;;;;;;5114916;28;20197;-88
2023/08/03 12:58:34;;;;;;;6.07;2.88;;;;;;;;;;5116100;28;20229;-88
2023/08/03 13:01:02;;;;;;;5.88;2.45;;;;;;;;;;5115807;28;20312;-87
2023/08/03 13:03:29;;;;;;;6.07;2.78;;;;;;;;;;5115905;28;20742;-88
2023/08/03 13:05:57;;;;;;;7.68;2.95;;;;;;;;;;5116094;28;20220;-88
2023/08/03 13:08:24;;;;;;;5.18;2.20;;;;;;;;;;5116013;28;20218;-89
2023/08/03 13:10:51;;;;;;;7.30;2.50;;;;;;;;;;5116010;28;20220;-89
2023/08/03 13:13:19;;;;;;;5.75;3.05;;;;;;;;;;5115651;28;20228;-88
2023/08/03 13:15:46;;;;;;;6.88;2.60;;;;;;;;;;5117498;27;20197;-88
2023/08/03 13:18:16;;;;;;;5.70;2.33;;;;;;;;;;5136243;27;20228;-88
2023/08/03 13:20:43;;;;;;;5.55;1.90;;;;;;;;;;5136376;27;20189;-88
2023/08/03 13:23:10;;;;;;;5.22;2.13;;;;;;;;;;5136616;27;20189;-88
2023/08/03 13:25:38;;;;;;;4.45;2.35;;;;;;;;;;5135948;27;20288;-88
2023/08/03 13:28:06;;;;;;;3.72;1.90;;;;;;;;;;5136163;27;20252;-88
2023/08/03 13:30:33;;;;;;;4.35;1.80;;;;;;;;;;5136299;27;20185;-87
2023/08/03 13:33:01;;;;;;;4.55;1.98;;;;;;;;;;5135755;27;20279;-87
2023/08/03 13:35:29;;;;;;;5.78;2.53;;;;;;;;;;5135873;27;20289;-88
2023/08/03 13:37:56;;;;;;;4.72;2.13;;;;;;;;;;5136289;27;20623;-88
2023/08/03 13:40:23;;;;;;;5.95;2.15;;;;;;;;;;5136185;27;20208;-88
2023/08/03 13:42:51;;;;;;;4.43;2.03;;;;;;;;;;5136038;27;20208;-87
2023/08/03 13:45:18;;;;;;;5.28;2.28;;;;;;;;;;5135833;27;20238;-88
2023/08/03 13:47:45;;;;;;;6.72;2.42;;;;;;;;;;5135421;27;20212;-87
2023/08/03 13:50:13;;;;;;;9.98;2.55;;;;;;;;;;5135419;27;20251;-88
2023/08/03 13:52:41;;;;;;;7.78;2.58;;;;;;;;;;5135580;27;20296;-87
2023/08/03 13:55:09;;;;;;;6.20;2.22;;;;;;;;;;5135033;27;20232;-86
2023/08/03 13:57:37;;;;;;;8.48;2.53;;;;;;;;;;5135485;27;20216;-87
2023/08/03 14:00:08;;;;;;;6.18;2.70;;;;;;;;;;5134924;27;20319;-88
2023/08/03 14:02:36;;;;;;;7.55;2.63;;;;;;;;;;5135502;27;20197;-88
2023/08/03 14:05:03;;;;;;;8.43;2.80;;;;;;;;;;5135316;27;20220;-88
2023/08/03 14:07:30;;;;;;;7.95;2.90;;;;;;;;;;5135569;27;20681;-89
2023/08/03 14:10:01;;;;;;;6.30;2.67;;;;;;;;;;5134803;27;20249;-88
2023/08/03 14:12:29;;;;;;;8.30;2.63;;;;;;;;;;5135189;27;20884;-88
2023/08/03 14:14:56;;;;;;;11.75;3.13;;;;;;;;;;5134984;27;20234;-88
2023/08/03 14:17:23;;;;;;;8.10;2.53;;;;;;;;;;5135015;27;20284;-88
2023/08/03 14:19:50;;;;;;;8.85;2.53;;;;;;;;;;5135216;27;20239;-88
2023/08/03 14:22:17;;;;;;;8.35;2.50;;;;;;;;;;5135080;27;20295;-89
2023/08/03 14:24:45;;;;;;;7.82;2.50;;;;;;;;;;5134495;27;20235;-89
2023/08/03 14:27:14;;;;;;;8.55;2.63;;;;;;;;;;5134741;27;20224;-88
2023/08/03 14:29:41;;;;;;;5.65;2.03;;;;;;;;;;5135108;27;20223;-88
2023/08/03 14:32:09;;;;;;;6.53;2.00;;;;;;;;;;5134757;27;20239;-88
2023/08/03 14:34:37;;;;;;;7.75;2.10;;;;;;;;;;5135170;27;20578;-89
2023/08/03 14:37:06;;;;;;;6.13;2.10;;;;;;;;;;5134681;27;20203;-89
2023/08/03 14:39:33;;;;;;;6.57;1.80;;;;;;;;;;5134565;27;20201;-88
2023/08/03 14:42:01;;;;;;;5.65;1.90;;;;;;;;;;5134705;27;20292;-89